createdAt,value
2023-09-01T00:00:02.020Z,58.1
2023-09-01T00:01:07.639Z,58.02
2023-09-01T00:02:13.185Z,58.13
2023-09-01T00:03:18.911Z,58.28
2023-09-01T00:04:24.520Z,58.15
2023-09-01T00:05:30.004Z,58.28
2023-09-01T00:06:35.592Z,58.17
2023-09-01T00:07:41.075Z,58.41
2023-09-01T00:08:46.554Z,58.34
2023-09-01T00:09:52.120Z,58.17
2023-09-01T00:10:57.655Z,58.08
2023-09-01T00:12:03.131Z,58.23
2023-09-01T00:13:08.625Z,58.35
2023-09-01T00:14:14.142Z,58.14
2023-09-01T00:15:19.641Z,58.41
2023-09-01T00:16:25.343Z,58.22
2023-09-01T00:17:31.009Z,58.22
2023-09-01T00:18:36.518Z,58.17
2023-09-01T00:19:42.008Z,58.04
2023-09-01T00:20:47.509Z,58.1
2023-09-01T00:21:53.099Z,57.99
2023-09-01T00:22:58.562Z,58.19
2023-09-01T00:24:04.016Z,58.15
2023-09-01T00:25:09.503Z,58.19
2023-09-01T00:26:14.998Z,58.27
2023-09-01T00:27:20.496Z,58.14
2023-09-01T00:28:26.001Z,58.14
2023-09-01T00:29:31.545Z,58.25
2023-09-01T00:30:37.119Z,58.48
2023-09-01T00:31:42.639Z,58.29
2023-09-01T00:32:48.268Z,58.23
2023-09-01T00:33:53.770Z,58.41
2023-09-01T00:34:59.232Z,58.38
2023-09-01T00:36:04.805Z,58.55
2023-09-01T00:37:12.808Z,58.39
2023-09-01T00:38:18.699Z,58.54
2023-09-01T00:39:24.375Z,58.46
2023-09-01T00:40:29.860Z,58.67
2023-09-01T00:41:35.369Z,58.51
2023-09-01T00:42:40.863Z,58.59
2023-09-01T00:43:46.334Z,58.73
2023-09-01T00:44:51.854Z,58.37
2023-09-01T00:45:57.753Z,58.7
2023-09-01T00:47:03.489Z,58.73
2023-09-01T00:48:09.079Z,59.07
2023-09-01T00:49:14.614Z,58.51
2023-09-01T00:50:20.090Z,58.91
2023-09-01T00:51:25.588Z,58.86
2023-09-01T00:52:31.072Z,58.92
2023-09-01T00:53:36.594Z,59.08
2023-09-01T00:54:42.095Z,59.12
2023-09-01T00:55:47.612Z,59.06
2023-09-01T00:56:53.077Z,59.28
2023-09-01T00:57:58.535Z,59.16
2023-09-01T00:59:04.063Z,59.18
2023-09-01T01:00:09.615Z,58.88
2023-09-01T01:01:15.247Z,58.95
2023-09-01T01:02:20.773Z,59.23
2023-09-01T01:03:26.747Z,59.1
2023-09-01T01:04:32.289Z,59.26
2023-09-01T01:05:37.904Z,59.22
2023-09-01T01:06:43.400Z,59.26
2023-09-01T01:07:48.890Z,59.26
2023-09-01T01:08:54.394Z,59.51
2023-09-01T01:09:59.857Z,59.12
2023-09-01T01:11:05.372Z,59.29
2023-09-01T01:12:11.025Z,59.22
2023-09-01T01:13:16.503Z,59.63
2023-09-01T01:14:22.029Z,59.5
2023-09-01T01:15:27.508Z,59.47
2023-09-01T01:16:33.162Z,59.59
2023-09-01T01:17:38.827Z,59.44
2023-09-01T01:18:44.306Z,59.37
2023-09-01T01:19:49.833Z,59.55
2023-09-01T01:20:55.605Z,59.41
2023-09-01T01:22:01.059Z,59.3
2023-09-01T01:23:06.536Z,59.54
2023-09-01T01:24:12.026Z,59.36
2023-09-01T01:25:17.616Z,59.53
2023-09-01T01:26:23.156Z,59.23
2023-09-01T01:27:28.644Z,59.24
2023-09-01T01:28:34.156Z,59.49
2023-09-01T01:29:39.645Z,59.37
2023-09-01T01:30:45.141Z,59.35
2023-09-01T01:31:50.878Z,59.19
2023-09-01T01:32:56.468Z,59.5
2023-09-01T01:34:01.994Z,59.31
2023-09-01T01:35:07.450Z,59.39
2023-09-01T01:36:12.940Z,59.44
2023-09-01T01:37:18.393Z,59.45
2023-09-01T01:38:23.917Z,59.33
2023-09-01T01:39:29.423Z,59.3
2023-09-01T01:40:34.878Z,59.22
2023-09-01T01:41:40.374Z,59.38
2023-09-01T01:42:45.846Z,59.24
2023-09-01T01:43:51.377Z,59.38
2023-09-01T01:44:56.863Z,59.09
2023-09-01T01:46:02.483Z,59.16
2023-09-01T01:47:07.992Z,59.18
2023-09-01T01:48:14.611Z,59.37
2023-09-01T01:49:20.249Z,59.21
2023-09-01T01:50:25.727Z,59.25
2023-09-01T01:51:31.237Z,59.2
2023-09-01T01:52:36.737Z,59.31
2023-09-01T01:53:42.226Z,59.29
2023-09-01T01:54:47.798Z,59.14
2023-09-01T01:55:53.402Z,59.01
2023-09-01T01:56:58.889Z,59.2
2023-09-01T01:58:06.741Z,59.15
2023-09-01T01:59:12.225Z,59.26
2023-09-01T02:00:18.110Z,59.04
2023-09-01T02:01:23.740Z,59.24
2023-09-01T02:02:29.539Z,59.15
2023-09-01T02:03:35.010Z,59.08
2023-09-01T02:04:40.547Z,59.23
2023-09-01T02:05:46.067Z,59.09
2023-09-01T02:06:51.580Z,59
2023-09-01T02:07:57.098Z,59.15
2023-09-01T02:09:02.583Z,58.84
2023-09-01T02:10:08.164Z,59.05
2023-09-01T02:11:13.687Z,59.19
2023-09-01T02:12:19.183Z,58.86
2023-09-01T02:13:24.690Z,59.02
2023-09-01T02:14:30.171Z,59.12
2023-09-01T02:15:35.774Z,59.3
2023-09-01T02:16:41.391Z,59.29
2023-09-01T02:17:47.003Z,59.2
2023-09-01T02:18:52.525Z,59.23
2023-09-01T02:19:58.060Z,59.13
2023-09-01T02:21:03.600Z,59.23
2023-09-01T02:22:09.089Z,59.2
2023-09-01T02:23:14.577Z,59.14
2023-09-01T02:24:20.189Z,59.11
2023-09-01T02:25:25.715Z,59.36
2023-09-01T02:26:31.206Z,59.18
2023-09-01T02:27:36.705Z,59.31
2023-09-01T02:28:42.245Z,59.32
2023-09-01T02:29:47.719Z,59.01
2023-09-01T02:30:53.327Z,59.31
2023-09-01T02:31:58.867Z,59.13
2023-09-01T02:33:04.578Z,59.37
2023-09-01T02:34:10.112Z,59.29
2023-09-01T02:35:15.653Z,59.24
2023-09-01T02:36:21.137Z,59.29
2023-09-01T02:37:26.611Z,59.34
2023-09-01T02:38:32.111Z,59.28
2023-09-01T02:39:37.601Z,59.26
2023-09-01T02:40:43.087Z,59.37
2023-09-01T02:41:48.600Z,59.35
2023-09-01T02:42:54.058Z,59.33
2023-09-01T02:43:59.534Z,59.13
2023-09-01T02:45:05.162Z,59.15
2023-09-01T02:46:10.769Z,59.2
2023-09-01T02:47:16.322Z,59.14
2023-09-01T02:48:21.802Z,59.21
2023-09-01T02:49:27.281Z,59.11
2023-09-01T02:50:32.806Z,59.23
2023-09-01T02:51:38.284Z,59.06
2023-09-01T02:52:43.794Z,59.32
2023-09-01T02:53:49.313Z,59.25
2023-09-01T02:54:54.799Z,59.13
2023-09-01T02:56:00.271Z,59.15
2023-09-01T02:57:05.851Z,59
2023-09-01T02:58:11.336Z,59.21
2023-09-01T02:59:16.849Z,59.25
2023-09-01T03:00:22.736Z,59.18
2023-09-01T03:01:28.247Z,59.39
2023-09-01T03:02:33.869Z,59.42
2023-09-01T03:03:39.981Z,59.45
2023-09-01T03:04:45.579Z,59.55
2023-09-01T03:05:51.086Z,59.6
2023-09-01T03:06:56.581Z,59.37
2023-09-01T03:08:02.079Z,59.49
2023-09-01T03:09:07.739Z,59.53
2023-09-01T03:10:13.295Z,59.33
2023-09-01T03:11:18.762Z,59.47
2023-09-01T03:12:24.293Z,59.62
2023-09-01T03:13:29.843Z,59.43
2023-09-01T03:14:35.309Z,59.54
2023-09-01T03:15:40.801Z,59.37
2023-09-01T03:16:46.480Z,59.46
2023-09-01T03:17:52.213Z,59.39
2023-09-01T03:18:58.042Z,59.6
2023-09-01T03:20:03.541Z,59.41
2023-09-01T03:21:09.213Z,59.53
2023-09-01T03:22:14.910Z,59.6
2023-09-01T03:23:20.686Z,59.32
2023-09-01T03:24:26.400Z,59.45
2023-09-01T03:25:31.933Z,59.45
2023-09-01T03:26:37.549Z,59.47
2023-09-01T03:27:43.251Z,59.6
2023-09-01T03:28:48.838Z,59.47
2023-09-01T03:29:54.474Z,59.39
2023-09-01T03:31:00.173Z,59.47
2023-09-01T03:32:06.097Z,59.36
2023-09-01T03:33:11.961Z,58.96
2023-09-01T03:34:17.590Z,59.59
2023-09-01T03:35:23.358Z,59.5
2023-09-01T03:36:29.082Z,59.4
2023-09-01T03:37:34.817Z,59.37
2023-09-01T03:38:40.497Z,59.36
2023-09-01T03:39:46.195Z,59.07
2023-09-01T03:40:51.722Z,59.34
2023-09-01T03:41:57.407Z,59.36
2023-09-01T03:43:03.134Z,59.47
2023-09-01T03:44:08.844Z,59.15
2023-09-01T03:45:14.594Z,59.43
2023-09-01T03:46:20.375Z,59.38
2023-09-01T03:47:25.898Z,59.55
2023-09-01T03:48:31.435Z,59.22
2023-09-01T03:49:37.091Z,59.36
2023-09-01T03:50:42.633Z,59.22
2023-09-01T03:51:48.147Z,58.93
2023-09-01T03:52:53.624Z,59.13
2023-09-01T03:53:59.150Z,59.35
2023-09-01T03:55:04.670Z,59.31
2023-09-01T03:56:10.187Z,59.42
2023-09-01T03:57:15.841Z,59.42
2023-09-01T03:58:21.321Z,59.66
2023-09-01T03:59:26.798Z,59.07
2023-09-01T04:00:32.266Z,56.23
2023-09-01T04:01:37.938Z,54.14
2023-09-01T04:02:43.528Z,53.25
2023-09-01T04:03:51.796Z,52.77
2023-09-01T04:04:57.341Z,51.75
2023-09-01T04:06:02.800Z,51.43
2023-09-01T04:07:08.339Z,51.17
2023-09-01T04:08:14.405Z,50.98
2023-09-01T04:09:20.050Z,50.68
2023-09-01T04:10:25.542Z,50.84
2023-09-01T04:11:31.149Z,50.48
2023-09-01T04:12:36.698Z,50.38
2023-09-01T04:13:42.159Z,50.2
2023-09-01T04:14:47.661Z,50.07
2023-09-01T04:15:53.191Z,50.19
2023-09-01T04:16:58.684Z,50.11
2023-09-01T04:18:04.328Z,50.1
2023-09-01T04:19:10.583Z,49.92
2023-09-01T04:20:16.077Z,49.98
2023-09-01T04:21:22.049Z,49.73
2023-09-01T04:22:27.531Z,49.99
2023-09-01T04:23:33.258Z,49.79
2023-09-01T04:24:38.890Z,49.76
2023-09-01T04:25:44.359Z,49.66
2023-09-01T04:26:49.902Z,49.91
2023-09-01T04:27:55.348Z,50.19
2023-09-01T04:29:00.828Z,49.84
2023-09-01T04:30:13.419Z,50.06
2023-09-01T04:31:18.975Z,49.95
2023-09-01T04:32:24.527Z,50.15
2023-09-01T04:33:30.088Z,50.05
2023-09-01T04:34:35.563Z,50.01
2023-09-01T04:35:41.056Z,50.02
2023-09-01T04:36:50.541Z,50.17
2023-09-01T04:37:56.016Z,50.32
2023-09-01T04:39:01.527Z,50.33
2023-09-01T04:40:07.009Z,50.42
2023-09-01T04:41:12.570Z,50.46
2023-09-01T04:42:18.036Z,50.29
2023-09-01T04:43:23.574Z,50.43
2023-09-01T04:44:29.053Z,50.37
2023-09-01T04:45:34.660Z,50.41
2023-09-01T04:46:40.238Z,50.1
2023-09-01T04:47:45.760Z,50.41
2023-09-01T04:48:51.260Z,50.38
2023-09-01T04:49:56.777Z,50.41
2023-09-01T04:51:02.279Z,50.5
2023-09-01T04:52:07.790Z,50.54
2023-09-01T04:53:15.368Z,50.5
2023-09-01T04:54:20.869Z,50.43
2023-09-01T04:55:26.400Z,50.5
2023-09-01T04:56:31.932Z,50.43
2023-09-01T04:57:38.430Z,50.54
2023-09-01T04:58:43.880Z,50.6
2023-09-01T04:59:49.339Z,50.64
2023-09-01T05:00:54.938Z,50.63
2023-09-01T05:02:00.544Z,50.62
2023-09-01T05:03:06.449Z,50.6
2023-09-01T05:04:14.010Z,50.63
2023-09-01T05:05:19.513Z,50.56
2023-09-01T05:06:25.029Z,50.48
2023-09-01T05:07:30.524Z,50.61
2023-09-01T05:08:36.007Z,50.57
2023-09-01T05:09:41.529Z,50.54
2023-09-01T05:10:47.028Z,50.57
2023-09-01T05:11:52.573Z,50.54
2023-09-01T05:12:58.052Z,50.6
2023-09-01T05:14:03.524Z,50.64
2023-09-01T05:15:09.037Z,50.61
2023-09-01T05:16:16.920Z,50.66
2023-09-01T05:17:22.428Z,50.67
2023-09-01T05:18:27.914Z,50.67
2023-09-01T05:19:33.399Z,50.64
2023-09-01T05:20:38.899Z,50.58
2023-09-01T05:21:44.380Z,50.62
2023-09-01T05:22:50.076Z,50.67
2023-09-01T05:23:55.582Z,50.71
2023-09-01T05:25:01.120Z,50.65
2023-09-01T05:26:06.614Z,50.6
2023-09-01T05:27:12.073Z,50.69
2023-09-01T05:28:18.118Z,50.66
2023-09-01T05:29:23.624Z,50.7
2023-09-01T05:30:29.148Z,50.65
2023-09-01T05:31:34.769Z,50.61
2023-09-01T05:32:40.370Z,50.63
2023-09-01T05:33:45.916Z,50.74
2023-09-01T05:34:51.400Z,50.66
2023-09-01T05:35:56.880Z,50.66
2023-09-01T05:37:02.417Z,50.58
2023-09-01T05:38:07.874Z,50.72
2023-09-01T05:39:13.357Z,50.71
2023-09-01T05:40:18.845Z,50.7
2023-09-01T05:41:24.342Z,50.72
2023-09-01T05:42:29.836Z,50.68
2023-09-01T05:43:35.362Z,50.71
2023-09-01T05:44:40.866Z,50.67
2023-09-01T05:45:46.420Z,50.42
2023-09-01T05:46:52.191Z,50.58
2023-09-01T05:47:57.986Z,50.7
2023-09-01T05:49:03.628Z,50.66
2023-09-01T05:50:09.131Z,50.72
2023-09-01T05:51:14.686Z,50.43
2023-09-01T05:52:20.174Z,50.22
2023-09-01T05:53:25.697Z,50.17
2023-09-01T05:54:31.211Z,50.08
2023-09-01T05:55:36.752Z,50.2
2023-09-01T05:56:42.227Z,50.28
2023-09-01T05:57:47.706Z,50.42
2023-09-01T05:58:55.572Z,50.42
2023-09-01T06:00:01.136Z,50.33
2023-09-01T06:01:06.692Z,50.24
2023-09-01T06:02:13.212Z,50.1
2023-09-01T06:03:18.989Z,50.02
2023-09-01T06:04:24.570Z,49.84
2023-09-01T06:05:30.068Z,49.83
2023-09-01T06:06:35.663Z,49.82
2023-09-01T06:07:41.116Z,49.74
2023-09-01T06:08:49.292Z,49.94
2023-09-01T06:09:54.723Z,49.96
2023-09-01T06:11:00.195Z,50.04
2023-09-01T06:12:05.728Z,50.02
2023-09-01T06:13:11.233Z,50.03
2023-09-01T06:14:16.730Z,49.93
2023-09-01T06:15:22.207Z,49.79
2023-09-01T06:16:27.894Z,49.76
2023-09-01T06:17:49.159Z,49.7
2023-09-01T06:18:54.631Z,49.62
2023-09-01T06:20:00.102Z,49.71
2023-09-01T06:21:05.629Z,49.69
2023-09-01T06:22:11.110Z,49.76
2023-09-01T06:23:16.613Z,50.02
2023-09-01T06:24:22.086Z,49.92
2023-09-01T06:25:27.642Z,49.86
2023-09-01T06:26:33.161Z,49.6
2023-09-01T06:27:38.754Z,49.42
2023-09-01T06:28:44.298Z,49.59
2023-09-01T06:29:49.781Z,49.71
2023-09-01T06:30:55.479Z,49.76
2023-09-01T06:32:01.014Z,49.8
2023-09-01T06:33:06.659Z,49.92
2023-09-01T06:34:12.139Z,49.94
2023-09-01T06:35:17.738Z,50.01
2023-09-01T06:36:23.272Z,50.13
2023-09-01T06:37:28.730Z,50.07
2023-09-01T06:38:34.218Z,49.87
2023-09-01T06:39:39.706Z,49.71
2023-09-01T06:40:45.246Z,49.59
2023-09-01T06:41:50.742Z,49.53
2023-09-01T06:42:56.288Z,49.67
2023-09-01T06:44:01.784Z,49.84
2023-09-01T06:45:07.386Z,50.09
2023-09-01T06:46:12.944Z,50.16
2023-09-01T06:47:18.538Z,49.96
2023-09-01T06:48:24.145Z,49.92
2023-09-01T06:49:29.639Z,49.72
2023-09-01T06:50:35.141Z,49.57
2023-09-01T06:51:43.871Z,49.48
2023-09-01T06:52:49.695Z,49.42
2023-09-01T06:53:55.184Z,49.47
2023-09-01T06:55:00.763Z,49.52
2023-09-01T06:56:06.244Z,49.59
2023-09-01T06:57:11.749Z,49.67
2023-09-01T06:58:18.635Z,49.74
2023-09-01T06:59:27.198Z,49.89
2023-09-01T07:00:32.770Z,49.95
2023-09-01T07:01:38.336Z,50.08
2023-09-01T07:02:43.945Z,50.11
2023-09-01T07:03:49.593Z,50.16
2023-09-01T07:04:55.091Z,50.27
2023-09-01T07:06:00.876Z,50.32
2023-09-01T07:07:06.418Z,50.32
2023-09-01T07:08:12.038Z,50.31
2023-09-01T07:09:17.693Z,50.39
2023-09-01T07:10:23.173Z,50.34
2023-09-01T07:11:29.382Z,50.42
2023-09-01T07:12:34.832Z,50.44
2023-09-01T07:13:40.328Z,50.49
2023-09-01T07:14:45.832Z,50.14
2023-09-01T07:15:51.444Z,50.24
2023-09-01T07:16:56.992Z,50.14
2023-09-01T07:18:02.646Z,50.25
2023-09-01T07:19:08.155Z,50.23
2023-09-01T07:20:14.010Z,50.14
2023-09-01T07:21:19.511Z,50.13
2023-09-01T07:22:25.008Z,50.16
2023-09-01T07:23:31.072Z,50.11
2023-09-01T07:24:37.303Z,50.11
2023-09-01T07:25:42.828Z,50.21
2023-09-01T07:26:48.297Z,50.28
2023-09-01T07:27:53.864Z,50.2
2023-09-01T07:28:59.359Z,50
2023-09-01T07:30:04.933Z,49.99
2023-09-01T07:31:10.642Z,50.13
2023-09-01T07:32:16.245Z,50.25
2023-09-01T07:33:21.797Z,50.27
2023-09-01T07:34:27.386Z,50.13
2023-09-01T07:35:32.848Z,49.98
2023-09-01T07:36:38.394Z,49.86
2023-09-01T07:37:43.911Z,49.74
2023-09-01T07:38:49.506Z,49.62
2023-09-01T07:39:54.987Z,49.62
2023-09-01T07:41:00.472Z,49.58
2023-09-01T07:42:05.927Z,49.52
2023-09-01T07:43:11.435Z,49.46
2023-09-01T07:44:16.909Z,49.44
2023-09-01T07:45:22.655Z,49.42
2023-09-01T07:46:28.184Z,49.33
2023-09-01T07:47:33.858Z,49.33
2023-09-01T07:48:39.542Z,49.24
2023-09-01T07:49:45.265Z,49.33
2023-09-01T07:50:51.024Z,49.51
2023-09-01T07:51:56.594Z,49.43
2023-09-01T07:53:02.100Z,49.38
2023-09-01T07:54:07.605Z,49.37
2023-09-01T07:55:13.108Z,49.29
2023-09-01T07:56:18.633Z,49.36
2023-09-01T07:57:24.408Z,49.42
2023-09-01T07:58:29.900Z,49.73
2023-09-01T07:59:35.443Z,49.34
2023-09-01T08:00:41.183Z,49.64
2023-09-01T08:01:46.718Z,49.61
2023-09-01T08:02:54.872Z,49.56
2023-09-01T08:04:00.568Z,49.6
2023-09-01T08:05:06.111Z,49.69
2023-09-01T08:06:11.627Z,49.74
2023-09-01T08:07:17.146Z,49.61
2023-09-01T08:08:22.668Z,49.61
2023-09-01T08:09:28.159Z,49.56
2023-09-01T08:10:33.642Z,49.46
2023-09-01T08:11:39.112Z,49.58
2023-09-01T08:12:47.667Z,49.64
2023-09-01T08:13:53.143Z,49.75
2023-09-01T08:14:58.718Z,49.8
2023-09-01T08:16:04.197Z,49.69
2023-09-01T08:17:09.677Z,49.61
2023-09-01T08:18:15.930Z,49.66
2023-09-01T08:19:21.475Z,49.74
2023-09-01T08:20:27.055Z,49.79
2023-09-01T08:21:32.543Z,49.77
2023-09-01T08:22:38.057Z,49.87
2023-09-01T08:23:43.551Z,49.87
2023-09-01T08:24:49.034Z,50.12
2023-09-01T08:25:54.569Z,50.34
2023-09-01T08:27:00.007Z,50.48
2023-09-01T08:28:05.514Z,50.44
2023-09-01T08:29:10.976Z,50.56
2023-09-01T08:30:16.479Z,50.54
2023-09-01T08:31:22.163Z,50.55
2023-09-01T08:32:27.811Z,50.64
2023-09-01T08:33:33.415Z,50.7
2023-09-01T08:34:38.959Z,50.74
2023-09-01T08:35:44.452Z,50.77
2023-09-01T08:36:49.993Z,50.78
2023-09-01T08:37:55.455Z,50.66
2023-09-01T08:39:00.935Z,50.45
2023-09-01T08:40:06.412Z,50.34
2023-09-01T08:41:11.947Z,50.31
2023-09-01T08:42:17.697Z,50.24
2023-09-01T08:43:23.223Z,50.24
2023-09-01T08:44:28.729Z,50.06
2023-09-01T08:45:34.194Z,50
2023-09-01T08:46:39.848Z,49.92
2023-09-01T08:47:45.517Z,49.81
2023-09-01T08:48:51.069Z,49.71
2023-09-01T08:49:56.597Z,49.63
2023-09-01T08:51:02.125Z,49.45
2023-09-01T08:52:07.756Z,49.43
2023-09-01T08:53:13.265Z,49.32
2023-09-01T08:54:18.749Z,49.26
2023-09-01T08:55:24.237Z,49.3
2023-09-01T08:56:29.706Z,49.38
2023-09-01T08:57:35.212Z,49.37
2023-09-01T08:58:40.923Z,49.75
2023-09-01T08:59:46.406Z,49.54
2023-09-01T09:00:51.911Z,49.54
2023-09-01T09:01:57.788Z,49.29
2023-09-01T09:03:11.111Z,49.19
2023-09-01T09:04:16.983Z,49.22
2023-09-01T09:05:22.508Z,49.21
2023-09-01T09:06:28.163Z,49.04
2023-09-01T09:07:33.644Z,49.04
2023-09-01T09:08:39.113Z,49.04
2023-09-01T09:09:44.606Z,49.13
2023-09-01T09:10:50.295Z,49.05
2023-09-01T09:11:55.786Z,49.19
2023-09-01T09:13:01.236Z,49.05
2023-09-01T09:14:13.275Z,48.91
2023-09-01T09:15:18.812Z,48.91
2023-09-01T09:16:24.519Z,48.91
2023-09-01T09:17:30.037Z,48.86
2023-09-01T09:18:36.105Z,48.88
2023-09-01T09:19:45.384Z,48.84
2023-09-01T09:20:50.882Z,48.87
2023-09-01T09:21:56.393Z,48.83
2023-09-01T09:23:01.965Z,48.91
2023-09-01T09:24:25.011Z,48.83
2023-09-01T09:25:30.598Z,48.74
2023-09-01T09:26:36.086Z,48.66
2023-09-01T09:27:41.552Z,48.66
2023-09-01T09:28:47.047Z,48.7
2023-09-01T09:29:52.722Z,48.64
2023-09-01T09:30:58.203Z,48.61
2023-09-01T09:32:03.832Z,48.59
2023-09-01T09:33:09.656Z,48.72
2023-09-01T09:34:15.220Z,48.7
2023-09-01T09:35:20.705Z,48.69
2023-09-01T09:36:26.171Z,48.45
2023-09-01T09:37:31.663Z,48.46
2023-09-01T09:38:37.123Z,48.33
2023-09-01T09:39:42.710Z,48.32
2023-09-01T09:40:48.192Z,48.27
2023-09-01T09:41:53.666Z,48.27
2023-09-01T09:42:59.136Z,48.24
2023-09-01T09:44:04.686Z,48.21
2023-09-01T09:45:10.323Z,48.35
2023-09-01T09:46:15.994Z,48.39
2023-09-01T09:47:21.512Z,48.49
2023-09-01T09:48:27.220Z,48.49
2023-09-01T09:49:32.806Z,48.49
2023-09-01T09:50:38.299Z,48.67
2023-09-01T09:51:43.760Z,48.13
2023-09-01T09:52:49.255Z,47.96
2023-09-01T09:53:54.732Z,47.82
2023-09-01T09:55:00.888Z,47.78
2023-09-01T09:56:06.377Z,47.74
2023-09-01T09:57:14.180Z,47.67
2023-09-01T09:58:20.400Z,47.55
2023-09-01T09:59:25.914Z,47.64
2023-09-01T10:00:31.462Z,47.63
2023-09-01T10:01:38.780Z,47.58
2023-09-01T10:02:45.178Z,47.51
2023-09-01T10:03:50.822Z,47.53
2023-09-01T10:04:56.345Z,47.59
2023-09-01T10:06:01.837Z,47.6
2023-09-01T10:07:07.483Z,47.66
2023-09-01T10:08:13.365Z,47.67
2023-09-01T10:09:19.105Z,47.68
2023-09-01T10:10:24.614Z,47.66
2023-09-01T10:11:30.125Z,47.64
2023-09-01T10:12:35.616Z,47.62
2023-09-01T10:13:41.093Z,47.52
2023-09-01T10:14:46.580Z,47.33
2023-09-01T10:15:52.131Z,47.21
2023-09-01T10:16:57.690Z,47.33
2023-09-01T10:18:03.360Z,47.08
2023-09-01T10:19:08.911Z,47.01
2023-09-01T10:20:14.417Z,46.92
2023-09-01T10:21:19.931Z,46.89
2023-09-01T10:22:25.474Z,46.78
2023-09-01T10:23:30.944Z,46.92
2023-09-01T10:24:36.420Z,47
2023-09-01T10:25:42.294Z,46.92
2023-09-01T10:26:47.952Z,46.85
2023-09-01T10:27:53.457Z,46.76
2023-09-01T10:28:58.973Z,46.79
2023-09-01T10:30:04.470Z,46.74
2023-09-01T10:31:10.086Z,47.02
2023-09-01T10:32:15.594Z,46.95
2023-09-01T10:33:21.292Z,46.83
2023-09-01T10:34:26.816Z,46.77
2023-09-01T10:35:32.299Z,46.76
2023-09-01T10:36:37.784Z,46.73
2023-09-01T10:37:43.284Z,46.68
2023-09-01T10:38:48.800Z,46.73
2023-09-01T10:39:54.295Z,46.75
2023-09-01T10:40:59.764Z,46.73
2023-09-01T10:42:05.308Z,46.74
2023-09-01T10:43:10.785Z,46.72
2023-09-01T10:44:16.288Z,46.75
2023-09-01T10:45:21.748Z,46.76
2023-09-01T10:46:27.322Z,46.82
2023-09-01T10:47:32.935Z,46.94
2023-09-01T10:48:38.453Z,46.89
2023-09-01T10:49:43.959Z,47
2023-09-01T10:50:49.456Z,47.07
2023-09-01T10:51:54.969Z,47.1
2023-09-01T10:53:00.590Z,47.11
2023-09-01T10:54:06.057Z,47.15
2023-09-01T10:55:11.618Z,47.18
2023-09-01T10:56:17.159Z,47.17
2023-09-01T10:57:22.712Z,47.14
2023-09-01T10:58:28.167Z,47.09
2023-09-01T10:59:33.667Z,46.91
2023-09-01T11:00:39.233Z,46.8
2023-09-01T11:01:44.774Z,46.64
2023-09-01T11:02:50.420Z,46.56
2023-09-01T11:03:55.952Z,46.48
2023-09-01T11:05:01.509Z,46.39
2023-09-01T11:06:07.082Z,46.34
2023-09-01T11:07:13.667Z,46.34
2023-09-01T11:08:20.130Z,46.36
2023-09-01T11:09:25.642Z,46.38
2023-09-01T11:10:31.167Z,46.41
2023-09-01T11:11:36.778Z,46.28
2023-09-01T11:12:42.284Z,46.36
2023-09-01T11:13:47.867Z,46.31
2023-09-01T11:14:53.351Z,46.29
2023-09-01T11:15:58.831Z,46.23
2023-09-01T11:17:05.364Z,46.29
2023-09-01T11:18:11.851Z,46.25
2023-09-01T11:19:17.349Z,46.31
2023-09-01T11:20:22.969Z,46.43
2023-09-01T11:21:28.523Z,46.51
2023-09-01T11:22:34.081Z,46.59
2023-09-01T11:23:39.545Z,46.45
2023-09-01T11:24:45.086Z,46.36
2023-09-01T11:25:50.560Z,46.31
2023-09-01T11:26:56.039Z,46.27
2023-09-01T11:28:01.527Z,46.2
2023-09-01T11:29:06.983Z,46.21
2023-09-01T11:30:12.504Z,46.16
2023-09-01T11:31:18.125Z,46.2
2023-09-01T11:32:23.685Z,46.09
2023-09-01T11:33:29.742Z,46
2023-09-01T11:34:35.323Z,45.9
2023-09-01T11:35:40.799Z,45.91
2023-09-01T11:36:46.285Z,45.86
2023-09-01T11:37:51.767Z,45.8
2023-09-01T11:38:57.335Z,45.79
2023-09-01T11:40:03.225Z,45.67
2023-09-01T11:41:09.095Z,45.66
2023-09-01T11:42:14.619Z,45.61
2023-09-01T11:43:20.348Z,45.52
2023-09-01T11:44:25.858Z,45.52
2023-09-01T11:45:31.440Z,45.47
2023-09-01T11:46:37.218Z,45.44
2023-09-01T11:47:42.734Z,45.42
2023-09-01T11:48:48.315Z,45.45
2023-09-01T11:49:53.790Z,45.51
2023-09-01T11:50:59.316Z,45.58
2023-09-01T11:52:04.824Z,45.58
2023-09-01T11:53:10.310Z,45.61
2023-09-01T11:54:15.857Z,45.69
2023-09-01T11:55:21.408Z,45.65
2023-09-01T11:56:27.471Z,45.63
2023-09-01T11:57:33.174Z,45.68
2023-09-01T11:58:38.705Z,45.81
2023-09-01T11:59:44.277Z,45.84
2023-09-01T12:00:49.810Z,45.84
2023-09-01T12:01:55.515Z,46
2023-09-01T12:03:01.177Z,46
2023-09-01T12:04:06.980Z,45.99
2023-09-01T12:05:12.677Z,46
2023-09-01T12:06:18.172Z,46.05
2023-09-01T12:07:23.680Z,46
2023-09-01T12:08:29.209Z,45.94
2023-09-01T12:09:34.820Z,45.9
2023-09-01T12:10:43.194Z,45.77
2023-09-01T12:11:48.683Z,45.74
2023-09-01T12:12:54.150Z,45.6
2023-09-01T12:13:59.611Z,45.6
2023-09-01T12:15:05.119Z,45.49
2023-09-01T12:16:10.786Z,45.42
2023-09-01T12:17:16.457Z,45.34
2023-09-01T12:18:22.131Z,45.35
2023-09-01T12:19:27.660Z,45.32
2023-09-01T12:20:33.308Z,45.28
2023-09-01T12:21:38.841Z,45.28
2023-09-01T12:22:44.401Z,45.17
2023-09-01T12:23:49.964Z,45.1
2023-09-01T12:24:55.462Z,44.94
2023-09-01T12:26:00.969Z,44.95
2023-09-01T12:27:06.498Z,44.85
2023-09-01T12:28:12.034Z,44.79
2023-09-01T12:29:17.534Z,44.77
2023-09-01T12:30:25.768Z,44.73
2023-09-01T12:31:31.439Z,44.75
2023-09-01T12:32:37.114Z,44.88
2023-09-01T12:33:43.060Z,45.04
2023-09-01T12:34:52.077Z,45.01
2023-09-01T12:35:59.911Z,45.11
2023-09-01T12:37:05.685Z,45.17
2023-09-01T12:38:11.170Z,45.05
2023-09-01T12:39:16.668Z,45.05
2023-09-01T12:40:22.225Z,45.01
2023-09-01T12:41:27.728Z,44.99
2023-09-01T12:42:33.345Z,44.97
2023-09-01T12:43:38.921Z,44.98
2023-09-01T12:44:44.449Z,44.91
2023-09-01T12:45:50.263Z,44.96
2023-09-01T12:46:55.767Z,44.9
2023-09-01T12:48:01.360Z,44.84
2023-09-01T12:49:06.986Z,44.74
2023-09-01T12:50:12.575Z,44.71
2023-09-01T12:51:18.144Z,44.61
2023-09-01T12:52:23.662Z,44.71
2023-09-01T12:53:29.132Z,44.66
2023-09-01T12:54:34.666Z,44.65
2023-09-01T12:55:40.187Z,44.67
2023-09-01T12:56:45.665Z,44.67
2023-09-01T12:57:51.196Z,44.67
2023-09-01T12:58:56.695Z,44.68
2023-09-01T13:00:02.254Z,44.66
2023-09-01T13:01:08.103Z,44.61
2023-09-01T13:02:13.608Z,44.64
2023-09-01T13:03:20.299Z,44.67
2023-09-01T13:04:25.999Z,44.66
2023-09-01T13:05:31.781Z,44.7
2023-09-01T13:06:37.340Z,44.73
2023-09-01T13:07:42.821Z,44.85
2023-09-01T13:08:48.327Z,44.87
2023-09-01T13:09:53.808Z,44.92
2023-09-01T13:10:59.321Z,44.94
2023-09-01T13:12:04.847Z,45.06
2023-09-01T13:13:10.409Z,45.18
2023-09-01T13:14:15.944Z,45.16
2023-09-01T13:15:21.423Z,45
2023-09-01T13:16:27.085Z,44.97
2023-09-01T13:17:32.621Z,44.91
2023-09-01T13:18:38.098Z,44.85
2023-09-01T13:19:43.571Z,44.8
2023-09-01T13:20:49.057Z,44.73
2023-09-01T13:21:54.526Z,44.73
2023-09-01T13:23:00.122Z,44.73
2023-09-01T13:24:05.660Z,44.72
2023-09-01T13:25:11.177Z,44.77
2023-09-01T13:26:16.713Z,44.8
2023-09-01T13:27:22.174Z,44.88
2023-09-01T13:28:27.660Z,44.87
2023-09-01T13:29:33.145Z,44.92
2023-09-01T13:30:38.661Z,44.92
2023-09-01T13:31:44.417Z,45.01
2023-09-01T13:32:50.148Z,45.02
2023-09-01T13:33:55.636Z,45.03
2023-09-01T13:35:01.139Z,45.04
2023-09-01T13:36:06.748Z,44.95
2023-09-01T13:37:12.674Z,44.96
2023-09-01T13:38:18.266Z,44.96
2023-09-01T13:39:23.711Z,45.01
2023-09-01T13:40:29.204Z,45.03
2023-09-01T13:41:34.701Z,45.01
2023-09-01T13:42:40.200Z,45.03
2023-09-01T13:43:45.922Z,44.99
2023-09-01T13:44:51.392Z,44.95
2023-09-01T13:45:56.963Z,44.92
2023-09-01T13:47:02.565Z,44.88
2023-09-01T13:48:08.315Z,44.78
2023-09-01T13:49:16.441Z,44.85
2023-09-01T13:50:21.911Z,44.73
2023-09-01T13:51:27.404Z,44.8
2023-09-01T13:52:32.940Z,44.86
2023-09-01T13:53:38.451Z,44.86
2023-09-01T13:54:43.940Z,44.82
2023-09-01T13:55:49.409Z,44.85
2023-09-01T13:56:54.966Z,44.88
2023-09-01T13:58:00.630Z,44.88
2023-09-01T13:59:06.119Z,44.88
2023-09-01T14:00:11.739Z,44.91
2023-09-01T14:01:17.630Z,44.86
2023-09-01T14:02:23.304Z,44.79
2023-09-01T14:03:29.026Z,44.78
2023-09-01T14:04:35.204Z,44.76
2023-09-01T14:05:40.684Z,44.71
2023-09-01T14:06:46.153Z,44.78
2023-09-01T14:07:51.847Z,44.75
2023-09-01T14:08:57.348Z,44.67